MST,Max TemperatureF,Mean TemperatureF,Min TemperatureF,Max Dew PointF,MeanDew PointF,Min DewpointF,Max Humidity, Mean Humidity, Min Humidity, Max Sea Level PressureIn, Mean Sea Level PressureIn, Min Sea Level PressureIn, Max VisibilityMiles, Mean VisibilityMiles, Min VisibilityMiles, Max Wind SpeedMPH, Mean Wind SpeedMPH, Max Gust SpeedMPH,PrecipitationIn, CloudCover, Events, WindDirDegrees
2012-12-1,61,51,41,31,29,25,57,42,27,29.90,29.82,29.71,10,10,10,36,12,46,0.00,0,,268
2012-12-2,70,51,31,28,22,12,69,42,14,29.89,29.71,29.53,10,10,10,16,7,24,0.00,0,,169
2012-12-3,61,48,35,34,22,10,70,47,24,30.18,29.92,29.52,10,10,6,43,13,58,0.00,1,,289
2012-12-4,57,39,20,29,17,3,74,43,12,30.35,30.19,30.05,10,10,10,25,8,33,0.00,0,,255
2012-12-5,67,54,40,33,29,23,50,37,24,30.02,29.83,29.70,10,10,10,31,14,43,T,1,Rain,251
2012-12-6,50,40,30,34,28,22,89,69,49,30.06,29.95,29.81,10,10,4,23,11,28,T,4,Rain-Snow,101
2012-12-7,40,30,19,25,21,16,88,66,44,30.02,29.91,29.76,10,10,10,17,7,21,0.00,3,,262
2012-12-8,43,30,16,26,19,7,92,61,30,30.03,29.80,29.60,10,10,10,30,15,39,T,3,,279
2012-12-9,21,10,-1,7,1,-5,79,62,45,30.40,30.27,30.00,10,10,10,26,11,36,0.00,1,,320
2012-12-10,36,18,-1,16,8,-4,87,60,32,30.14,30.02,29.96,10,10,10,23,11,32,0.00,5,,312
2012-12-11,44,25,5,20,15,4,92,63,33,30.08,29.91,29.72,10,10,10,24,10,33,0.00,0,,267
2012-12-12,59,44,29,18,16,13,51,34,17,29.86,29.73,29.65,10,10,10,29,10,45,0.00,0,,231
2012-12-13,51,36,20,19,16,13,65,44,22,30.04,29.95,29.86,10,10,10,14,7,17,0.00,0,,122
2012-12-14,46,32,18,18,16,13,80,56,31,29.86,29.71,29.56,10,10,9,10,5,13,0.00,2,,349
2012-12-15,43,34,25,25,21,18,81,64,46,29.81,29.73,29.61,10,10,10,13,7,16,0.00,3,,316
2012-12-16,43,31,19,22,17,14,92,62,32,29.81,29.74,29.66,10,10,3,32,12,40,T,4,,256
2012-12-17,52,32,11,30,19,10,92,62,32,29.76,29.60,29.44,10,10,7,39,15,48,0.00,1,,274
2012-12-18,41,35,28,17,8,-1,63,41,19,29.83,29.72,29.57,10,10,10,26,12,33,0.00,3,,287
2012-12-19,29,17,4,21,13,-3,96,69,42,30.28,29.96,29.77,10,6,1,20,10,28,0.04,6,Snow,338
2012-12-20,40,21,1,12,5,-3,79,53,26,30.32,30.25,30.19,10,10,10,25,12,35,0.00,0,,276
2012-12-21,52,32,12,14,10,4,64,42,19,30.24,30.13,30.04,10,10,10,24,6,31,0.00,0,,225
2012-12-22,51,35,18,15,9,5,65,41,16,30.08,29.99,29.90,10,10,10,20,6,28,0.00,0,,206
2012-12-23,51,32,13,17,11,6,80,49,18,30.03,29.95,29.88,10,10,10,33,11,40,0.00,0,,284
2012-12-24,32,21,10,20,15,6,91,75,59,30.20,29.97,29.85,10,5,1,23,12,29,0.02,8,Snow,89
2012-12-25,12,2,-8,7,2,-12,95,84,73,30.49,30.31,30.07,10,7,2,15,4,18,0.01,5,Snow,63
2012-12-26,15,3,-10,13,3,-14,96,86,76,30.26,29.97,29.68,10,10,7,14,4,16,0.00,5,,115
2012-12-27,21,12,3,13,7,1,96,82,67,30.09,29.88,29.66,10,8,2,18,6,26,T,7,Snow,28
2012-12-28,31,15,-1,18,7,-3,96,77,58,30.25,30.11,29.90,10,9,4,13,5,16,0.00,4,,279
2012-12-29,34,17,-1,15,9,-3,96,72,47,30.32,30.21,30.08,10,10,10,12,5,14,0.00,0,,156
2012-12-30,31,15,-1,15,7,-2,92,69,46,30.23,30.14,30.04,10,10,10,7,5,8,0.00,1,,324
2012-12-31,25,14,3,16,9,1,96,82,68,30.23,30.13,30.00,10,7,0,8,1,9,0.00,6,Fog,292